Terminal Aerodrome Forecast
Issued by NWS

Home | Current Version | Previous Version | Text Only | Print | Product List | Glossary On
Versions: 1 2 3 4 5 6 7 8 9 10 11 12 13 14 15 16 17 18 19 20 21 22 23
000
FTUS41 KRLX 260500 AAC
TAFCKB
TAF AMD
KCKB 260507Z 2605/2624 VRB03KT 2SM -RA BR BKN040 OVC070
      TEMPO 2605/2606 3/4SM BR BKN002
     FM260600 VRB03KT 3SM -RA BR SCT025 BKN035
     FM261000 VRB03KT 2SM -RA BR OVC010
     FM261400 09004KT 2SM -RASN BR OVC006=

USA.gov is the U.S. government's official web portal to all federal, state and local government web resources and services.